createdAt,value
2023-02-11T00:01:14.867Z,7.40
2023-02-11T00:03:41.884Z,7.40
2023-02-11T00:06:11.742Z,7.40
2023-02-11T00:08:40.105Z,7.40
2023-02-11T00:11:07.672Z,7.30
2023-02-11T00:13:34.717Z,7.30
2023-02-11T00:16:08.231Z,7.30
2023-02-11T00:18:36.265Z,7.30
2023-02-11T00:21:08.960Z,7.30
2023-02-11T00:23:36.705Z,7.30
2023-02-11T00:26:04.770Z,7.30
2023-02-11T00:28:31.778Z,7.30
2023-02-11T00:30:58.968Z,7.30
2023-02-11T00:33:26.047Z,7.30
2023-02-11T00:35:53.282Z,7.30
2023-02-11T00:38:20.424Z,7.30
2023-02-11T00:40:47.306Z,7.30
2023-02-11T00:43:14.245Z,7.30
2023-02-11T00:45:41.254Z,7.30
2023-02-11T00:48:08.077Z,7.40
2023-02-11T00:50:35.483Z,7.40
2023-02-11T00:53:02.510Z,7.40
2023-02-11T00:55:29.587Z,7.40
2023-02-11T00:57:56.853Z,7.40
2023-02-11T01:00:23.687Z,7.40
2023-02-11T01:02:50.610Z,7.50
2023-02-11T01:05:17.753Z,7.50
2023-02-11T01:07:44.607Z,7.50
2023-02-11T01:10:12.540Z,7.60
2023-02-11T01:12:40.497Z,7.60
2023-02-11T01:15:09.702Z,7.60
2023-02-11T01:17:38.377Z,7.60
2023-02-11T01:20:08.356Z,7.60
2023-02-11T01:22:39.426Z,7.70
2023-02-11T01:25:08.690Z,7.70
2023-02-11T01:27:37.004Z,7.70
2023-02-11T01:30:07.893Z,7.70
2023-02-11T01:32:35.488Z,7.60
2023-02-11T01:35:02.798Z,7.60
2023-02-11T01:37:29.717Z,7.60
2023-02-11T01:39:57.457Z,7.60
2023-02-11T01:42:24.820Z,7.50
2023-02-11T01:44:54.318Z,7.50
2023-02-11T01:47:21.821Z,7.50
2023-02-11T01:49:57.544Z,7.60
2023-02-11T01:52:32.688Z,7.50
2023-02-11T01:55:25.946Z,7.50
2023-02-11T01:57:59.120Z,7.50
2023-02-11T02:00:37.623Z,7.50
2023-02-11T02:03:20.174Z,7.50
2023-02-11T02:06:06.199Z,7.50
2023-02-11T02:08:43.869Z,7.60
2023-02-11T02:11:10.935Z,7.60
2023-02-11T02:13:38.269Z,7.60
2023-02-11T02:16:15.768Z,7.60
2023-02-11T02:19:02.367Z,7.60
2023-02-11T02:22:14.092Z,7.60
2023-02-11T02:25:27.733Z,7.60
2023-02-11T02:28:48.420Z,7.70
2023-02-11T02:31:37.487Z,7.70
2023-02-11T02:34:16.073Z,7.70
2023-02-11T02:36:55.326Z,7.70
2023-02-11T02:39:29.241Z,7.80
2023-02-11T02:41:57.139Z,7.80
2023-02-11T02:44:24.751Z,7.80
2023-02-11T02:46:51.752Z,7.90
2023-02-11T02:49:18.829Z,7.90
2023-02-11T02:52:29.312Z,7.90
2023-02-11T02:55:22.472Z,7.90
2023-02-11T02:58:28.039Z,8.00
2023-02-11T03:01:28.619Z,8.00
2023-02-11T03:04:01.965Z,8.00
2023-02-11T03:06:53.503Z,8.10
2023-02-11T03:09:35.433Z,8.10
2023-02-11T03:12:04.316Z,8.10
2023-02-11T03:14:32.582Z,8.10
2023-02-11T03:17:02.521Z,8.10
2023-02-11T03:19:35.647Z,8.10
2023-02-11T03:22:11.768Z,8.10
2023-02-11T03:24:41.566Z,8.20
2023-02-11T03:27:27.184Z,8.20
2023-02-11T03:30:02.092Z,8.20
2023-02-11T03:32:37.229Z,8.20
2023-02-11T03:35:29.697Z,8.20
2023-02-11T03:37:57.996Z,8.20
2023-02-11T03:40:36.314Z,8.30
2023-02-11T03:43:17.293Z,8.30
2023-02-11T03:45:48.112Z,8.30
2023-02-11T03:48:24.051Z,8.30
2023-02-11T03:50:53.421Z,8.30
2023-02-11T03:53:22.750Z,8.30
2023-02-11T03:55:52.936Z,8.30
2023-02-11T03:58:20.347Z,8.40
2023-02-11T04:00:47.363Z,8.40
2023-02-11T04:03:14.443Z,8.40
2023-02-11T04:05:41.591Z,8.40
2023-02-11T04:08:09.321Z,8.40
2023-02-11T04:10:36.360Z,8.40
2023-02-11T04:13:03.389Z,8.40
2023-02-11T04:15:30.386Z,8.40
2023-02-11T04:17:57.219Z,8.40
2023-02-11T04:20:24.279Z,8.40
2023-02-11T04:22:51.104Z,8.40
2023-02-11T04:25:18.181Z,8.50
2023-02-11T04:27:45.012Z,8.60
2023-02-11T04:30:13.552Z,8.40
2023-02-11T04:32:40.603Z,8.50
2023-02-11T04:35:07.918Z,8.50
2023-02-11T04:37:35.586Z,8.50
2023-02-11T04:40:02.745Z,8.50
2023-02-11T04:42:29.771Z,8.50
2023-02-11T04:44:56.880Z,8.60
2023-02-11T04:47:23.832Z,8.60
2023-02-11T04:49:50.791Z,8.70
2023-02-11T04:52:17.675Z,8.70
2023-02-11T04:54:45.823Z,8.70
2023-02-11T04:57:12.694Z,8.70
2023-02-11T04:59:40.590Z,8.80
2023-02-11T05:02:07.631Z,8.80
2023-02-11T05:04:34.707Z,8.80
2023-02-11T05:07:01.960Z,8.80
2023-02-11T05:09:29.139Z,8.90
2023-02-11T05:11:56.208Z,8.90
2023-02-11T05:14:23.240Z,8.90
2023-02-11T05:16:50.301Z,8.90
2023-02-11T05:19:17.301Z,9.00
2023-02-11T05:22:00.271Z,9.00
2023-02-11T05:24:28.887Z,9.00
2023-02-11T05:26:56.040Z,9.00
2023-02-11T05:29:22.885Z,9.10
2023-02-11T05:31:49.715Z,9.10
2023-02-11T05:34:16.577Z,9.10
2023-02-11T05:36:43.692Z,9.10
2023-02-11T05:39:10.672Z,9.10
2023-02-11T05:41:38.331Z,9.10
2023-02-11T05:44:05.300Z,9.10
2023-02-11T05:46:32.330Z,9.10
2023-02-11T05:48:59.352Z,9.10
2023-02-11T05:51:26.327Z,9.10
2023-02-11T05:53:53.622Z,9.10
2023-02-11T05:56:20.640Z,9.10
2023-02-11T05:58:47.428Z,9.20
2023-02-11T06:01:14.323Z,9.20
2023-02-11T06:03:41.759Z,9.20
2023-02-11T06:06:12.612Z,9.20
2023-02-11T06:08:40.180Z,9.20
2023-02-11T06:11:07.415Z,9.20
2023-02-11T06:13:35.149Z,9.20
2023-02-11T06:16:03.187Z,9.20
2023-02-11T06:18:30.507Z,9.20
2023-02-11T06:20:57.395Z,9.20
2023-02-11T06:23:24.384Z,9.30
2023-02-11T06:25:52.714Z,9.20
2023-02-11T06:28:20.181Z,9.30
2023-02-11T06:30:47.389Z,9.30
2023-02-11T06:33:14.376Z,9.30
2023-02-11T06:35:41.379Z,9.30
2023-02-11T06:38:08.285Z,9.30
2023-02-11T06:40:35.254Z,9.30
2023-02-11T06:43:02.343Z,9.30
2023-02-11T06:45:29.404Z,9.30
2023-02-11T06:47:56.212Z,9.40
2023-02-11T06:50:23.353Z,9.40
2023-02-11T06:52:50.303Z,9.40
2023-02-11T06:55:17.614Z,9.40
2023-02-11T06:57:44.722Z,9.40
2023-02-11T07:00:12.728Z,9.40
2023-02-11T07:02:39.821Z,9.40
2023-02-11T07:05:08.091Z,9.50
2023-02-11T07:07:36.308Z,9.40
2023-02-11T07:10:04.508Z,9.50
2023-02-11T07:12:31.983Z,9.50
2023-02-11T07:14:58.888Z,9.50
2023-02-11T07:17:25.890Z,9.50
2023-02-11T07:19:52.794Z,9.50
2023-02-11T07:22:19.883Z,9.60
2023-02-11T07:24:46.904Z,9.60
2023-02-11T07:27:13.778Z,9.60
2023-02-11T07:29:42.708Z,9.60
2023-02-11T07:32:09.675Z,9.60
2023-02-11T07:34:36.857Z,9.60
2023-02-11T07:37:03.958Z,9.60
2023-02-11T07:39:30.990Z,9.70
2023-02-11T07:41:58.339Z,9.70
2023-02-11T07:44:25.956Z,9.70
2023-02-11T07:46:53.217Z,9.90
2023-02-11T07:49:20.178Z,9.80
2023-02-11T07:51:47.847Z,9.70
2023-02-11T07:54:14.925Z,9.80
2023-02-11T07:56:41.999Z,9.80
2023-02-11T07:59:09.000Z,9.80
2023-02-11T08:01:36.052Z,9.80
2023-02-11T08:04:03.883Z,9.90
2023-02-11T08:06:34.288Z,9.90
2023-02-11T08:09:07.739Z,9.90
2023-02-11T08:11:35.330Z,9.90
2023-02-11T08:14:02.590Z,9.90
2023-02-11T08:16:34.004Z,9.90
2023-02-11T08:19:05.063Z,10.00
2023-02-11T08:21:32.266Z,10.00
2023-02-11T08:23:59.390Z,10.00
2023-02-11T08:26:31.674Z,9.90
2023-02-11T08:28:59.307Z,10.10
2023-02-11T08:31:35.142Z,10.10
2023-02-11T08:34:02.758Z,10.10
2023-02-11T08:36:36.612Z,10.10
2023-02-11T08:39:18.685Z,10.20
2023-02-11T08:41:53.872Z,10.20
2023-02-11T08:44:22.470Z,10.20
2023-02-11T08:46:50.674Z,10.20
2023-02-11T08:49:18.142Z,10.30
2023-02-11T08:51:45.903Z,10.30
2023-02-11T08:54:14.187Z,10.30
2023-02-11T08:56:41.686Z,10.30
2023-02-11T08:59:12.799Z,10.30
2023-02-11T09:01:39.732Z,10.40
2023-02-11T09:04:06.628Z,10.40
2023-02-11T09:06:34.108Z,10.40
2023-02-11T09:09:01.656Z,10.40
2023-02-11T09:11:35.211Z,10.40
2023-02-11T09:14:04.020Z,10.40
2023-02-11T09:16:34.572Z,10.50
2023-02-11T09:19:05.033Z,10.50
2023-02-11T09:21:32.121Z,10.50
2023-02-11T09:23:59.260Z,10.50
2023-02-11T09:26:32.372Z,10.50
2023-02-11T09:29:00.199Z,10.60
2023-02-11T09:31:29.869Z,10.60
2023-02-11T09:34:03.551Z,10.60
2023-02-11T09:36:34.617Z,10.60
2023-02-11T09:39:04.491Z,10.60
2023-02-11T09:42:09.092Z,10.70
2023-02-11T09:44:38.537Z,10.70
2023-02-11T09:47:30.433Z,10.70
2023-02-11T09:50:07.455Z,10.70
2023-02-11T09:52:41.691Z,10.80
2023-02-11T09:55:28.389Z,10.80
2023-02-11T09:57:57.217Z,10.80
2023-02-11T10:00:54.197Z,10.80
2023-02-11T10:04:10.349Z,10.80
2023-02-11T10:07:11.070Z,10.80
2023-02-11T10:10:01.697Z,10.80
2023-02-11T10:13:16.771Z,10.90
2023-02-11T10:16:22.638Z,10.90
2023-02-11T10:19:23.835Z,10.90
2023-02-11T10:22:18.315Z,10.90
2023-02-11T10:24:58.178Z,11.00
2023-02-11T10:27:34.397Z,10.90
2023-02-11T10:30:24.251Z,11.00
2023-02-11T10:33:05.972Z,11.00
2023-02-11T10:35:33.559Z,11.00
2023-02-11T10:38:01.200Z,11.10
2023-02-11T10:40:31.268Z,11.10
2023-02-11T10:43:06.936Z,11.10
2023-02-11T10:45:48.821Z,11.10
2023-02-11T10:48:49.650Z,11.10
2023-02-11T10:51:25.824Z,11.10
2023-02-11T10:54:05.311Z,11.10
2023-02-11T10:56:38.272Z,11.10
2023-02-11T10:59:15.226Z,11.10
2023-02-11T11:01:48.461Z,11.00
2023-02-11T11:04:39.321Z,11.00
2023-02-11T11:07:24.416Z,11.00
2023-02-11T11:10:02.498Z,11.00
2023-02-11T11:12:48.794Z,11.00
2023-02-11T11:15:24.278Z,11.00
2023-02-11T11:18:21.885Z,11.00
2023-02-11T11:21:33.284Z,11.00
2023-02-11T11:24:04.018Z,10.90
2023-02-11T11:26:47.874Z,10.90
2023-02-11T11:29:46.207Z,10.90
2023-02-11T11:32:28.885Z,10.90
2023-02-11T11:35:17.712Z,10.90
2023-02-11T11:37:46.036Z,10.80
2023-02-11T11:40:15.963Z,10.90
2023-02-11T11:42:43.474Z,10.90
2023-02-11T11:45:16.443Z,10.90
2023-02-11T11:47:54.625Z,10.90
2023-02-11T11:50:55.918Z,10.90
2023-02-11T11:53:42.137Z,10.90
2023-02-11T11:56:23.371Z,10.90
2023-02-11T11:58:50.900Z,11.00
2023-02-11T12:01:51.858Z,11.00
2023-02-11T12:04:46.422Z,11.00
2023-02-11T12:08:03.923Z,11.00
2023-02-11T12:10:49.696Z,11.10
2023-02-11T12:14:08.065Z,11.10
2023-02-11T12:17:04.108Z,11.10
2023-02-11T12:19:50.577Z,11.10
2023-02-11T12:22:29.909Z,11.20
2023-02-11T12:25:08.885Z,11.20
2023-02-11T12:27:50.735Z,11.20
2023-02-11T12:30:17.647Z,11.20
2023-02-11T12:33:11.741Z,11.30
2023-02-11T12:36:16.006Z,11.30
2023-02-11T12:39:00.168Z,11.30
2023-02-11T12:42:17.076Z,11.40
2023-02-11T12:45:16.093Z,11.40
2023-02-11T12:48:04.200Z,11.40
2023-02-11T12:50:40.069Z,11.50
2023-02-11T12:53:32.242Z,11.50
2023-02-11T12:56:15.044Z,11.50
2023-02-11T12:58:45.736Z,11.50
2023-02-11T13:01:34.289Z,11.60
2023-02-11T13:04:18.062Z,11.60
2023-02-11T13:06:51.141Z,11.60
2023-02-11T13:09:46.552Z,11.60
2023-02-11T13:12:33.366Z,11.60
2023-02-11T13:15:07.557Z,11.60
2023-02-11T13:17:47.601Z,11.70
2023-02-11T13:20:59.962Z,11.70
2023-02-11T13:23:58.085Z,11.70
2023-02-11T13:26:40.632Z,11.70
2023-02-11T13:29:31.917Z,11.70
2023-02-11T13:32:14.499Z,11.70
2023-02-11T13:34:41.496Z,11.70
2023-02-11T13:37:37.733Z,11.70
2023-02-11T13:40:07.760Z,11.70
2023-02-11T13:42:50.099Z,11.70
2023-02-11T13:45:46.066Z,11.70
2023-02-11T13:48:26.598Z,11.70
2023-02-11T13:50:58.702Z,11.70
2023-02-11T13:53:26.302Z,11.90
2023-02-11T13:56:07.777Z,11.70
2023-02-11T13:58:47.084Z,11.70
2023-02-11T14:02:22.811Z,11.70
2023-02-11T14:05:42.791Z,11.70
2023-02-11T14:08:28.373Z,11.70
2023-02-11T14:10:58.008Z,11.70
2023-02-11T14:14:14.424Z,11.70
2023-02-11T14:16:59.750Z,11.70
2023-02-11T14:19:45.101Z,11.70
2023-02-11T14:22:44.092Z,11.70
2023-02-11T14:25:25.722Z,11.90
2023-02-11T14:28:22.001Z,11.70
2023-02-11T14:31:10.681Z,11.70
2023-02-11T14:33:40.616Z,11.70
2023-02-11T14:36:39.603Z,11.70
2023-02-11T14:39:24.220Z,11.70
2023-02-11T14:41:51.657Z,11.70
2023-02-11T14:44:31.519Z,11.70
2023-02-11T14:46:59.214Z,11.70
2023-02-11T14:49:34.320Z,11.70
2023-02-11T14:52:19.784Z,11.70
2023-02-11T14:54:50.312Z,11.70
2023-02-11T14:57:20.392Z,11.70
2023-02-11T15:00:14.203Z,11.70
2023-02-11T15:02:44.510Z,11.70
2023-02-11T15:05:27.462Z,11.70
2023-02-11T15:08:04.276Z,11.70
2023-02-11T15:10:42.007Z,11.80
2023-02-11T15:13:16.600Z,11.70
2023-02-11T15:15:46.303Z,11.70
2023-02-11T15:18:31.972Z,11.80
2023-02-11T15:20:59.088Z,11.80
2023-02-11T15:23:29.360Z,11.80
2023-02-11T15:25:56.518Z,11.80
2023-02-11T15:28:30.803Z,11.80
2023-02-11T15:31:16.779Z,11.80
2023-02-11T15:33:43.965Z,11.80
2023-02-11T15:36:13.892Z,11.80
2023-02-11T15:38:41.126Z,11.80
2023-02-11T15:41:37.970Z,11.80
2023-02-11T15:44:05.242Z,11.80
2023-02-11T15:46:39.312Z,11.80
2023-02-11T15:49:08.640Z,11.80
2023-02-11T15:51:37.786Z,12.20
2023-02-11T15:54:21.593Z,11.80
2023-02-11T15:56:59.151Z,11.80
2023-02-11T15:59:38.034Z,11.80
2023-02-11T16:02:18.630Z,11.90
2023-02-11T16:04:57.313Z,11.80
2023-02-11T16:07:50.308Z,11.80
2023-02-11T16:10:24.496Z,11.80
2023-02-11T16:12:53.390Z,11.80
2023-02-11T16:15:43.005Z,11.80
2023-02-11T16:18:36.716Z,11.80
2023-02-11T16:21:07.362Z,11.80
2023-02-11T16:23:44.303Z,11.80
2023-02-11T16:26:32.948Z,11.80
2023-02-11T16:29:25.982Z,11.80
2023-02-11T16:32:09.131Z,11.80
2023-02-11T16:34:36.849Z,11.80
2023-02-11T16:37:05.610Z,11.90
2023-02-11T16:39:33.061Z,11.80
2023-02-11T16:42:01.194Z,11.80
2023-02-11T16:44:29.225Z,11.80
2023-02-11T16:47:00.210Z,11.80
2023-02-11T16:49:32.272Z,11.80
2023-02-11T16:52:01.913Z,11.80
2023-02-11T16:54:30.199Z,11.90
2023-02-11T16:56:57.951Z,11.90
2023-02-11T16:59:25.119Z,11.90
2023-02-11T17:01:54.647Z,11.90
2023-02-11T17:04:28.757Z,11.90
2023-02-11T17:06:58.222Z,11.90
2023-02-11T17:09:30.607Z,11.90
2023-02-11T17:11:58.095Z,11.90
2023-02-11T17:14:25.110Z,11.90
2023-02-11T17:16:52.032Z,12.00
2023-02-11T17:19:21.560Z,11.90
2023-02-11T17:21:51.731Z,11.90
2023-02-11T17:24:20.178Z,11.90
2023-02-11T17:26:48.413Z,11.90
2023-02-11T17:29:19.216Z,12.00
2023-02-11T17:31:46.362Z,12.00
2023-02-11T17:34:13.344Z,12.00
2023-02-11T17:36:41.374Z,12.00
2023-02-11T17:39:08.529Z,12.00
2023-02-11T17:41:37.436Z,12.00
2023-02-11T17:44:05.168Z,12.00
2023-02-11T17:46:32.540Z,12.00
2023-02-11T17:49:00.233Z,12.00
2023-02-11T17:51:34.097Z,12.00
2023-02-11T17:54:07.403Z,12.00
2023-02-11T17:56:36.698Z,12.00
2023-02-11T17:59:05.534Z,12.00
2023-02-11T18:01:34.176Z,12.00
2023-02-11T18:04:01.883Z,12.00
2023-02-11T18:06:29.352Z,12.00
2023-02-11T18:08:59.851Z,12.00
2023-02-11T18:11:27.938Z,12.00
2023-02-11T18:13:55.419Z,12.00
2023-02-11T18:16:25.018Z,12.10
2023-02-11T18:18:53.309Z,12.00
2023-02-11T18:21:22.814Z,12.10
2023-02-11T18:23:50.472Z,12.10
2023-02-11T18:26:20.986Z,12.10
2023-02-11T18:28:48.090Z,12.10
2023-02-11T18:31:15.199Z,12.20
2023-02-11T18:33:42.769Z,12.20
2023-02-11T18:36:13.628Z,12.20
2023-02-11T18:38:42.142Z,12.20
2023-02-11T18:41:09.275Z,12.20
2023-02-11T18:43:37.063Z,12.20
2023-02-11T18:46:11.344Z,12.20
2023-02-11T18:48:39.851Z,12.30
2023-02-11T18:51:19.932Z,12.30
2023-02-11T18:53:47.211Z,12.30
2023-02-11T18:56:18.755Z,12.30
2023-02-11T18:58:46.051Z,12.30
2023-02-11T19:01:24.376Z,12.30
2023-02-11T19:03:52.326Z,12.30
2023-02-11T19:06:26.087Z,12.30
2023-02-11T19:09:00.705Z,12.40
2023-02-11T19:11:50.015Z,12.30
2023-02-11T19:14:34.138Z,12.40
2023-02-11T19:17:05.554Z,12.50
2023-02-11T19:19:35.717Z,12.40
2023-02-11T19:22:08.504Z,12.40
2023-02-11T19:24:37.896Z,12.40
2023-02-11T19:27:05.585Z,12.30
2023-02-11T19:29:34.941Z,12.30
2023-02-11T19:32:05.765Z,12.30
2023-02-11T19:34:33.789Z,12.30
2023-02-11T19:37:01.548Z,12.30
2023-02-11T19:39:28.707Z,12.30
2023-02-11T19:41:55.813Z,12.30
2023-02-11T19:44:23.029Z,12.50
2023-02-11T19:46:53.059Z,12.30
2023-02-11T19:49:23.502Z,12.30
2023-02-11T19:51:51.600Z,12.30
2023-02-11T19:54:20.291Z,12.30
2023-02-11T19:56:48.718Z,12.30
2023-02-11T19:59:16.620Z,12.30
2023-02-11T20:01:46.253Z,12.30
2023-02-11T20:04:13.732Z,12.30
2023-02-11T20:06:40.814Z,12.30
2023-02-11T20:09:13.181Z,12.20
2023-02-11T20:11:40.824Z,12.20
2023-02-11T20:14:08.617Z,12.20
2023-02-11T20:16:47.476Z,12.20
2023-02-11T20:19:22.010Z,12.20
2023-02-11T20:21:52.661Z,12.20
2023-02-11T20:24:21.497Z,12.20
2023-02-11T20:26:49.390Z,12.20
2023-02-11T20:29:18.369Z,12.20
2023-02-11T20:31:46.366Z,12.20
2023-02-11T20:34:13.793Z,12.20
2023-02-11T20:36:40.904Z,12.20
2023-02-11T20:39:10.067Z,12.20
2023-02-11T20:41:40.959Z,12.20
2023-02-11T20:44:11.161Z,12.20
2023-02-11T20:46:42.553Z,12.20
2023-02-11T20:49:12.913Z,12.30
2023-02-11T20:51:40.782Z,12.20
2023-02-11T20:54:14.180Z,12.20
2023-02-11T20:56:41.463Z,12.20
2023-02-11T20:59:08.894Z,12.30
2023-02-11T21:01:43.248Z,12.20
2023-02-11T21:04:21.197Z,12.20
2023-02-11T21:06:55.145Z,12.30
2023-02-11T21:09:26.540Z,12.30
2023-02-11T21:11:54.772Z,12.30
2023-02-11T21:14:24.652Z,12.30
2023-02-11T21:16:52.026Z,12.30
2023-02-11T21:19:19.392Z,12.30
2023-02-11T21:21:47.070Z,12.30
2023-02-11T21:24:14.582Z,12.30
2023-02-11T21:26:41.534Z,12.30
2023-02-11T21:29:09.075Z,12.30
2023-02-11T21:31:37.961Z,12.30
2023-02-11T21:34:06.109Z,12.30
2023-02-11T21:36:33.421Z,12.30
2023-02-11T21:39:01.685Z,12.30
2023-02-11T21:41:29.412Z,12.30
2023-02-11T21:43:57.123Z,12.30
2023-02-11T21:46:24.522Z,12.30
2023-02-11T21:48:52.449Z,12.60
2023-02-11T21:51:23.384Z,12.30
2023-02-11T21:53:59.823Z,12.30
2023-02-11T21:56:28.187Z,12.30
2023-02-11T21:58:57.670Z,12.30
2023-02-11T22:01:29.250Z,12.30
2023-02-11T22:03:58.340Z,12.30
2023-02-11T22:06:31.377Z,12.30
2023-02-11T22:08:59.051Z,12.30
2023-02-11T22:11:26.038Z,12.30
2023-02-11T22:13:55.418Z,12.30
2023-02-11T22:16:23.621Z,12.30
2023-02-11T22:18:51.350Z,12.30
2023-02-11T22:21:21.559Z,12.30
2023-02-11T22:23:49.341Z,12.30
2023-02-11T22:26:21.131Z,12.30
2023-02-11T22:28:49.450Z,12.30
2023-02-11T22:31:29.561Z,12.30
2023-02-11T22:33:57.543Z,12.30
2023-02-11T22:36:45.274Z,12.20
2023-02-11T22:39:15.212Z,12.20
2023-02-11T22:41:44.222Z,12.20
2023-02-11T22:44:11.966Z,12.10
2023-02-11T22:46:39.723Z,12.20
2023-02-11T22:49:07.321Z,12.20
2023-02-11T22:51:34.832Z,12.20
2023-02-11T22:54:05.622Z,12.20
2023-02-11T22:56:34.838Z,12.20
2023-02-11T22:59:05.676Z,12.20
2023-02-11T23:01:33.638Z,12.20
2023-02-11T23:04:03.922Z,12.20
2023-02-11T23:06:31.129Z,12.20
2023-02-11T23:08:58.674Z,12.30
2023-02-11T23:11:28.901Z,12.20
2023-02-11T23:13:56.605Z,12.20
2023-02-11T23:16:33.253Z,12.20
2023-02-11T23:19:04.141Z,12.20
2023-02-11T23:21:34.628Z,12.20
2023-02-11T23:24:07.227Z,12.10
2023-02-11T23:26:35.183Z,12.10
2023-02-11T23:29:02.668Z,12.20
2023-02-11T23:31:37.449Z,12.10
2023-02-11T23:34:05.940Z,12.20
2023-02-11T23:36:33.556Z,12.10
2023-02-11T23:39:00.654Z,12.10
2023-02-11T23:41:28.567Z,12.10
2023-02-11T23:43:57.944Z,12.10
2023-02-11T23:46:27.458Z,12.10
2023-02-11T23:48:54.479Z,12.10
2023-02-11T23:51:22.627Z,12.10
2023-02-11T23:53:50.269Z,12.10
2023-02-11T23:56:24.300Z,12.00
2023-02-11T23:58:54.315Z,12.10
